createdAt,value
2023-11-05T07:09:19.293Z,0.59
2023-11-05T07:11:47.215Z,0.51
2023-11-05T07:14:14.121Z,0.52
2023-11-05T07:16:41.134Z,0.67
2023-11-05T07:19:08.107Z,0.48
2023-11-05T07:21:35.010Z,0.50
2023-11-05T07:24:02.062Z,0.68
2023-11-05T07:26:28.977Z,1.15
2023-11-05T07:28:55.902Z,0.61
2023-11-05T07:31:23.149Z,0.53
2023-11-05T07:33:50.262Z,0.43
2023-11-05T07:36:17.213Z,0.57
2023-11-05T07:38:44.257Z,0.51
2023-11-05T07:41:11.197Z,0.66
2023-11-05T07:43:38.195Z,1.08
2023-11-05T07:46:05.133Z,2.17
2023-11-05T07:48:32.014Z,0.87
2023-11-05T07:50:58.920Z,0.62
2023-11-05T07:53:25.876Z,0.49
2023-11-05T07:55:52.727Z,0.43
2023-11-05T07:58:19.670Z,0.45
2023-11-05T08:00:46.694Z,0.55
2023-11-05T08:03:13.638Z,0.48
2023-11-05T08:05:40.672Z,0.55
2023-11-05T08:08:07.604Z,0.56
2023-11-05T08:10:34.557Z,0.73
2023-11-05T08:13:01.412Z,0.53
2023-11-05T08:15:28.400Z,0.68
2023-11-05T08:17:55.413Z,0.77
2023-11-05T08:20:22.436Z,0.63
2023-11-05T08:22:49.528Z,1.13
2023-11-05T08:25:16.762Z,2.58
2023-11-05T08:27:43.824Z,2.15
2023-11-05T08:30:10.918Z,0.40
2023-11-05T08:32:37.880Z,0.46
2023-11-05T08:35:04.823Z,0.39
2023-11-05T08:37:31.909Z,0.32
2023-11-05T08:39:58.921Z,0.29
2023-11-05T08:42:25.832Z,0.38
2023-11-05T08:44:52.832Z,0.49
2023-11-05T08:47:19.747Z,0.37
2023-11-05T08:49:46.759Z,0.42
2023-11-05T08:52:13.897Z,0.55
2023-11-05T08:54:40.870Z,0.83
2023-11-05T08:57:07.774Z,1.24
2023-11-05T08:59:34.791Z,2.37
2023-11-05T09:02:01.791Z,1.57
2023-11-05T09:04:28.830Z,0.56
2023-11-05T09:06:55.862Z,0.37
2023-11-05T09:09:22.764Z,0.52
2023-11-05T09:11:49.732Z,0.62
2023-11-05T09:14:16.850Z,0.40
2023-11-05T09:16:43.612Z,0.45
2023-11-05T09:19:10.347Z,0.34
2023-11-05T09:21:37.186Z,0.38
2023-11-05T09:24:03.873Z,0.35
2023-11-05T09:26:32.605Z,0.40
2023-11-05T09:29:00.323Z,0.33
2023-11-05T09:31:28.335Z,0.45
2023-11-05T09:33:55.990Z,0.45
2023-11-05T09:36:22.714Z,0.52
2023-11-05T09:38:49.413Z,1.64
2023-11-05T12:55:37.308Z,0.95
2023-11-05T12:58:04.346Z,1.92
2023-11-05T13:00:31.495Z,0.82
2023-11-05T13:02:58.716Z,0.79
2023-11-05T13:05:26.336Z,2.76
2023-11-05T13:07:54.478Z,1.47
2023-11-05T13:10:22.759Z,0.77
2023-11-05T13:12:49.693Z,0.69
2023-11-05T13:15:16.681Z,0.74
2023-11-05T13:17:43.705Z,1.05
2023-11-05T13:23:09.132Z,4.89
2023-11-05T13:25:44.152Z,1.04
2023-11-05T13:28:11.700Z,1.52
2023-11-05T13:30:46.199Z,1.48
2023-11-05T14:53:16.582Z,0.65
2023-11-05T14:55:43.548Z,0.48
2023-11-05T14:58:10.549Z,0.71
2023-11-05T15:00:37.358Z,0.58
2023-11-05T15:03:04.196Z,1.35
2023-11-05T15:05:31.054Z,0.81
2023-11-05T15:07:58.222Z,0.36
2023-11-05T15:10:25.124Z,0.61
2023-11-05T15:12:51.846Z,0.41
2023-11-05T15:15:18.708Z,0.33
2023-11-05T15:17:45.494Z,0.36
2023-11-05T15:20:12.302Z,1.87
2023-11-05T15:22:39.117Z,2.10
2023-11-05T15:25:07.775Z,0.45
2023-11-05T15:27:34.483Z,0.62
2023-11-05T15:30:01.297Z,0.52
2023-11-05T15:32:28.057Z,0.42
2023-11-05T15:34:54.801Z,0.45
2023-11-05T15:37:21.540Z,0.48
2023-11-05T15:39:48.256Z,0.46
2023-11-05T15:42:15.072Z,0.42
2023-11-05T15:44:41.865Z,0.58
2023-11-05T15:47:08.657Z,0.49
2023-11-05T15:49:35.416Z,0.58
2023-11-05T15:52:02.231Z,0.59
2023-11-05T15:54:29.094Z,0.61
2023-11-05T15:56:55.732Z,1.65
2023-11-05T15:59:22.734Z,3.73
2023-11-05T16:01:49.706Z,1.35
2023-11-05T16:04:16.798Z,2.37
2023-11-05T16:06:43.994Z,1.39
2023-11-05T16:09:10.842Z,0.90
2023-11-05T16:11:37.817Z,0.88
2023-11-05T16:14:04.931Z,0.99
2023-11-05T16:16:31.941Z,0.77
2023-11-05T16:18:59.366Z,0.77
2023-11-05T16:21:26.422Z,0.86
2023-11-05T16:23:53.393Z,0.77
2023-11-05T16:26:20.196Z,0.85
2023-11-05T16:28:47.209Z,1.04
2023-11-05T16:31:13.961Z,1.66
2023-11-05T16:33:40.726Z,6.08
2023-11-05T16:36:07.714Z,7.24
2023-11-05T16:38:34.453Z,0.86
2023-11-05T16:41:01.196Z,2.01
2023-11-05T16:43:28.048Z,1.31
2023-11-05T16:45:54.825Z,1.57
2023-11-05T16:48:21.633Z,1.63
2023-11-05T16:50:48.587Z,1.22
2023-11-05T16:53:17.238Z,2.41
2023-11-05T16:55:44.358Z,2.99
2023-11-05T16:58:11.221Z,1.08
2023-11-05T17:00:38.146Z,1.22
2023-11-05T17:03:04.916Z,1.53
2023-11-05T17:05:31.933Z,1.65
2023-11-05T17:07:58.769Z,1.45
2023-11-05T17:23:49.294Z,0.93
2023-11-05T17:26:16.207Z,1.05
2023-11-05T17:28:43.272Z,1.34
2023-11-05T17:31:10.252Z,1.96
2023-11-05T17:33:37.979Z,1.76
2023-11-05T17:36:04.986Z,1.04
2023-11-05T17:38:31.737Z,1.26
2023-11-05T17:40:58.507Z,1.29
2023-11-05T17:43:25.199Z,1.07
2023-11-05T17:45:52.060Z,1.31
2023-11-05T17:48:18.921Z,1.27
2023-11-05T17:50:45.721Z,1.33
2023-11-05T17:53:12.636Z,1.13
2023-11-05T17:55:39.397Z,1.00
2023-11-05T17:58:06.258Z,1.15
2023-11-05T18:00:33.117Z,1.36
2023-11-05T18:03:02.905Z,1.52
2023-11-05T18:05:29.721Z,1.35
2023-11-05T18:07:56.665Z,1.22
2023-11-05T18:10:24.195Z,1.28
2023-11-05T18:12:52.473Z,2.11
2023-11-05T18:15:19.236Z,2.84
2023-11-05T18:17:46.038Z,3.66
2023-11-05T18:20:12.999Z,2.82
2023-11-05T18:22:39.824Z,1.89
2023-11-05T18:25:06.596Z,2.38
2023-11-05T18:27:33.497Z,2.83
2023-11-05T18:30:00.669Z,0.85
2023-11-05T18:32:27.629Z,0.98
2023-11-05T18:34:54.711Z,1.78
2023-11-05T18:37:21.831Z,2.62
2023-11-05T18:39:48.829Z,3.50
2023-11-05T18:42:15.901Z,1.03
2023-11-05T18:44:42.998Z,1.02
2023-11-05T18:47:09.878Z,1.00
2023-11-05T18:49:36.912Z,1.05
2023-11-05T18:52:03.898Z,1.25
2023-11-05T18:54:30.887Z,2.42
2023-11-05T18:56:57.774Z,3.83
2023-11-05T18:59:24.802Z,1.34
2023-11-05T19:01:51.732Z,1.25
2023-11-05T19:04:18.664Z,1.21
2023-11-05T19:06:45.663Z,1.14
2023-11-05T19:09:12.533Z,1.29
2023-11-05T19:11:39.502Z,2.40
2023-11-05T19:14:13.684Z,2.46
2023-11-05T19:16:43.160Z,3.06
2023-11-05T19:19:10.778Z,3.33
2023-11-05T19:21:37.761Z,4.51
2023-11-05T19:24:04.666Z,4.41
2023-11-05T19:26:31.670Z,2.23
2023-11-05T19:28:58.757Z,2.35
2023-11-05T19:31:26.106Z,1.91
2023-11-05T19:33:53.282Z,2.22
2023-11-05T19:36:20.218Z,1.99
2023-11-05T19:38:46.889Z,1.93
2023-11-05T19:41:13.556Z,2.02
2023-11-05T19:43:40.414Z,1.83
2023-11-05T19:46:07.149Z,1.94
2023-11-05T19:48:33.987Z,2.07
2023-11-05T19:51:01.244Z,1.93
2023-11-05T19:53:28.971Z,1.71
2023-11-05T19:55:56.119Z,1.71
2023-11-05T19:58:22.908Z,1.51
2023-11-05T20:00:49.700Z,1.89
2023-11-05T20:03:16.494Z,2.13
2023-11-05T20:05:43.459Z,2.28
2023-11-05T20:08:10.389Z,2.16
2023-11-05T20:10:37.278Z,1.99
2023-11-05T20:13:04.990Z,2.20
2023-11-05T20:15:31.770Z,2.22
2023-11-05T20:17:58.728Z,2.18
2023-11-05T20:20:25.640Z,2.38
2023-11-05T20:22:52.574Z,2.43
2023-11-05T20:25:20.666Z,2.62
2023-11-05T20:27:47.581Z,3.48
2023-11-05T20:30:14.370Z,4.07
2023-11-05T20:32:42.081Z,2.73
2023-11-05T21:05:18.941Z,1.53
2023-11-05T21:07:46.007Z,4.19
2023-11-05T21:10:16.367Z,3.69
2023-11-05T21:12:44.720Z,1.79
2023-11-05T21:15:15.183Z,1.73
2023-11-05T21:17:42.356Z,1.89
2023-11-05T21:20:09.466Z,2.33
2023-11-05T21:22:36.560Z,2.66
2023-11-05T21:25:03.688Z,2.97
2023-11-05T21:27:30.741Z,3.39
2023-11-05T21:29:57.702Z,3.39
2023-11-05T21:32:24.751Z,3.68
2023-11-05T21:34:52.151Z,2.81
2023-11-05T21:37:19.421Z,2.55
2023-11-05T21:39:46.425Z,2.21
2023-11-05T21:42:13.656Z,2.04
2023-11-05T21:44:40.816Z,1.74
2023-11-05T21:47:07.704Z,1.84
2023-11-05T21:49:34.754Z,1.73
2023-11-05T21:52:01.675Z,1.63
2023-11-05T21:54:28.687Z,1.55
2023-11-05T21:56:55.690Z,1.50
2023-11-05T21:59:22.668Z,1.47
2023-11-05T22:01:49.646Z,1.47
2023-11-05T22:04:16.780Z,1.03
